sensor_id;sensor_type;location;lat;lon;timestamp;temperature;humidity
26907;DHT22;14472;56.880;16.658;2022-10-18T00:01:41;15.50;4.20
26907;DHT22;14472;56.880;16.658;2022-10-18T00:04:07;15.50;4.50
26907;DHT22;14472;56.880;16.658;2022-10-18T00:06:32;15.50;4.40
26907;DHT22;14472;56.880;16.658;2022-10-18T00:08:58;15.50;4.20
26907;DHT22;14472;56.880;16.658;2022-10-18T00:11:24;15.50;4.20
26907;DHT22;14472;56.880;16.658;2022-10-18T00:13:50;15.50;4.30
26907;DHT22;14472;56.880;16.658;2022-10-18T00:16:17;15.50;4.10
26907;DHT22;14472;56.880;16.658;2022-10-18T00:18:44;15.60;4.00
26907;DHT22;14472;56.880;16.658;2022-10-18T00:21:15;15.60;3.70
26907;DHT22;14472;56.880;16.658;2022-10-18T00:23:42;15.60;3.60
26907;DHT22;14472;56.880;16.658;2022-10-18T00:26:30;15.60;3.70
26907;DHT22;14472;56.880;16.658;2022-10-18T00:28:58;15.60;3.40
26907;DHT22;14472;56.880;16.658;2022-10-18T00:31:28;15.60;3.10
26907;DHT22;14472;56.880;16.658;2022-10-18T00:33:58;15.60;3.60
26907;DHT22;14472;56.880;16.658;2022-10-18T00:36:26;15.60;3.50
26907;DHT22;14472;56.880;16.658;2022-10-18T00:38:52;15.60;3.40
26907;DHT22;14472;56.880;16.658;2022-10-18T00:41:23;15.50;3.60
26907;DHT22;14472;56.880;16.658;2022-10-18T00:43:57;15.50;3.50
26907;DHT22;14472;56.880;16.658;2022-10-18T00:46:26;15.50;3.60
26907;DHT22;14472;56.880;16.658;2022-10-18T00:48:54;15.50;3.60
26907;DHT22;14472;56.880;16.658;2022-10-18T00:51:20;15.50;3.00
26907;DHT22;14472;56.880;16.658;2022-10-18T00:53:47;15.50;3.00
26907;DHT22;14472;56.880;16.658;2022-10-18T00:56:13;15.50;2.80
26907;DHT22;14472;56.880;16.658;2022-10-18T00:58:41;15.50;2.40
26907;DHT22;14472;56.880;16.658;2022-10-18T01:01:07;15.50;2.20
26907;DHT22;14472;56.880;16.658;2022-10-18T01:03:33;15.50;2.00
26907;DHT22;14472;56.880;16.658;2022-10-18T01:05:59;15.50;1.50
26907;DHT22;14472;56.880;16.658;2022-10-18T01:08:31;15.40;1.00
26907;DHT22;14472;56.880;16.658;2022-10-18T01:14:24;15.40;1.00
26907;DHT22;14472;56.880;16.658;2022-10-18T01:16:55;15.40;1.00
26907;DHT22;14472;56.880;16.658;2022-10-18T01:22:27;15.30;1.00
26907;DHT22;14472;56.880;16.658;2022-10-18T01:25:06;15.30;1.00
26907;DHT22;14472;56.880;16.658;2022-10-18T01:30:35;15.30;1.00
26907;DHT22;14472;56.880;16.658;2022-10-18T01:35:42;15.30;1.00
26907;DHT22;14472;56.880;16.658;2022-10-18T01:38:11;15.20;1.00
26907;DHT22;14472;56.880;16.658;2022-10-18T01:40:43;15.20;1.00
26907;DHT22;14472;56.880;16.658;2022-10-18T01:43:09;15.20;1.00
26907;DHT22;14472;56.880;16.658;2022-10-18T01:45:36;15.20;1.00
26907;DHT22;14472;56.880;16.658;2022-10-18T01:48:02;15.20;1.00
26907;DHT22;14472;56.880;16.658;2022-10-18T01:50:29;15.20;1.00
26907;DHT22;14472;56.880;16.658;2022-10-18T01:52:56;15.20;1.00
26907;DHT22;14472;56.880;16.658;2022-10-18T01:55:34;15.10;1.00
26907;DHT22;14472;56.880;16.658;2022-10-18T01:58:23;15.10;1.00
26907;DHT22;14472;56.880;16.658;2022-10-18T02:00:59;15.10;1.00
26907;DHT22;14472;56.880;16.658;2022-10-18T02:03:28;15.00;1.00
26907;DHT22;14472;56.880;16.658;2022-10-18T02:06:07;15.00;1.00
26907;DHT22;14472;56.880;16.658;2022-10-18T02:08:41;15.00;1.00
26907;DHT22;14472;56.880;16.658;2022-10-18T02:11:11;15.00;1.00
26907;DHT22;14472;56.880;16.658;2022-10-18T02:13:50;15.00;1.00
26907;DHT22;14472;56.880;16.658;2022-10-18T02:19:09;15.00;1.00
26907;DHT22;14472;56.880;16.658;2022-10-18T02:21:38;15.00;1.00
26907;DHT22;14472;56.880;16.658;2022-10-18T02:24:06;15.00;1.00
26907;DHT22;14472;56.880;16.658;2022-10-18T02:26:32;15.00;1.00
26907;DHT22;14472;56.880;16.658;2022-10-18T02:28:58;14.90;1.00
26907;DHT22;14472;56.880;16.658;2022-10-18T02:31:45;14.90;1.00
26907;DHT22;14472;56.880;16.658;2022-10-18T02:34:26;14.80;1.00
26907;DHT22;14472;56.880;16.658;2022-10-18T02:36:57;14.80;1.00
26907;DHT22;14472;56.880;16.658;2022-10-18T02:39:35;14.80;1.00
26907;DHT22;14472;56.880;16.658;2022-10-18T02:42:03;14.80;1.00
26907;DHT22;14472;56.880;16.658;2022-10-18T02:44:36;14.80;1.00
26907;DHT22;14472;56.880;16.658;2022-10-18T02:47:03;14.70;1.00
26907;DHT22;14472;56.880;16.658;2022-10-18T02:49:29;14.70;1.00
26907;DHT22;14472;56.880;16.658;2022-10-18T02:51:55;14.70;1.00
26907;DHT22;14472;56.880;16.658;2022-10-18T02:54:21;14.70;1.00
26907;DHT22;14472;56.880;16.658;2022-10-18T02:56:47;14.70;1.00
26907;DHT22;14472;56.880;16.658;2022-10-18T02:59:13;14.80;1.00
26907;DHT22;14472;56.880;16.658;2022-10-18T03:01:39;14.70;1.00
26907;DHT22;14472;56.880;16.658;2022-10-18T03:04:05;14.70;1.00
26907;DHT22;14472;56.880;16.658;2022-10-18T03:06:31;14.70;1.00
26907;DHT22;14472;56.880;16.658;2022-10-18T03:08:57;14.70;1.00
26907;DHT22;14472;56.880;16.658;2022-10-18T03:11:23;14.60;1.00
26907;DHT22;14472;56.880;16.658;2022-10-18T03:13:49;14.60;1.00
26907;DHT22;14472;56.880;16.658;2022-10-18T03:16:16;14.60;1.00
26907;DHT22;14472;56.880;16.658;2022-10-18T03:18:41;14.60;1.00
26907;DHT22;14472;56.880;16.658;2022-10-18T03:21:08;14.50;1.00
26907;DHT22;14472;56.880;16.658;2022-10-18T03:23:34;14.50;1.00
26907;DHT22;14472;56.880;16.658;2022-10-18T03:26:00;14.50;1.00
26907;DHT22;14472;56.880;16.658;2022-10-18T03:28:26;14.50;1.00
26907;DHT22;14472;56.880;16.658;2022-10-18T03:30:52;14.50;1.00
26907;DHT22;14472;56.880;16.658;2022-10-18T03:33:18;14.40;1.00
26907;DHT22;14472;56.880;16.658;2022-10-18T03:35:43;14.40;1.00
26907;DHT22;14472;56.880;16.658;2022-10-18T03:38:09;14.40;1.00
26907;DHT22;14472;56.880;16.658;2022-10-18T03:40:35;14.40;1.00
26907;DHT22;14472;56.880;16.658;2022-10-18T03:43:01;14.30;1.00
26907;DHT22;14472;56.880;16.658;2022-10-18T03:45:27;14.30;1.00
26907;DHT22;14472;56.880;16.658;2022-10-18T03:47:52;14.30;1.00
26907;DHT22;14472;56.880;16.658;2022-10-18T03:50:19;14.30;1.00
26907;DHT22;14472;56.880;16.658;2022-10-18T03:52:44;14.20;1.00
26907;DHT22;14472;56.880;16.658;2022-10-18T03:55:10;14.20;1.00
26907;DHT22;14472;56.880;16.658;2022-10-18T03:57:36;14.20;1.00
26907;DHT22;14472;56.880;16.658;2022-10-18T04:00:03;14.20;1.00
26907;DHT22;14472;56.880;16.658;2022-10-18T04:02:28;14.20;1.00
26907;DHT22;14472;56.880;16.658;2022-10-18T04:04:54;14.10;1.00
26907;DHT22;14472;56.880;16.658;2022-10-18T04:07:20;14.10;1.00
26907;DHT22;14472;56.880;16.658;2022-10-18T04:09:45;14.10;1.00
26907;DHT22;14472;56.880;16.658;2022-10-18T04:12:11;14.10;1.00
26907;DHT22;14472;56.880;16.658;2022-10-18T04:14:37;14.00;1.00
26907;DHT22;14472;56.880;16.658;2022-10-18T04:17:02;14.00;1.00
26907;DHT22;14472;56.880;16.658;2022-10-18T04:19:29;14.00;1.00
26907;DHT22;14472;56.880;16.658;2022-10-18T04:21:55;14.00;1.00
26907;DHT22;14472;56.880;16.658;2022-10-18T04:24:21;14.00;1.00
26907;DHT22;14472;56.880;16.658;2022-10-18T04:26:46;14.00;1.00
26907;DHT22;14472;56.880;16.658;2022-10-18T04:29:12;14.00;1.00
26907;DHT22;14472;56.880;16.658;2022-10-18T04:31:38;13.90;1.00
26907;DHT22;14472;56.880;16.658;2022-10-18T04:34:03;13.90;1.00
26907;DHT22;14472;56.880;16.658;2022-10-18T04:36:30;13.90;1.00
26907;DHT22;14472;56.880;16.658;2022-10-18T04:38:56;14.00;1.00
26907;DHT22;14472;56.880;16.658;2022-10-18T04:41:21;13.90;1.00
26907;DHT22;14472;56.880;16.658;2022-10-18T04:43:47;13.90;1.00
26907;DHT22;14472;56.880;16.658;2022-10-18T04:46:13;13.80;1.00
26907;DHT22;14472;56.880;16.658;2022-10-18T04:48:38;13.90;1.00
26907;DHT22;14472;56.880;16.658;2022-10-18T04:51:04;13.90;1.00
26907;DHT22;14472;56.880;16.658;2022-10-18T04:53:30;13.80;1.00
26907;DHT22;14472;56.880;16.658;2022-10-18T04:55:56;13.80;1.00
26907;DHT22;14472;56.880;16.658;2022-10-18T04:58:21;13.90;1.00
26907;DHT22;14472;56.880;16.658;2022-10-18T05:00:48;13.80;1.00
26907;DHT22;14472;56.880;16.658;2022-10-18T05:03:15;13.80;1.00
26907;DHT22;14472;56.880;16.658;2022-10-18T05:05:42;13.80;1.00
26907;DHT22;14472;56.880;16.658;2022-10-18T05:08:10;13.80;1.00
26907;DHT22;14472;56.880;16.658;2022-10-18T05:10:36;13.80;1.00
26907;DHT22;14472;56.880;16.658;2022-10-18T05:13:02;13.80;1.00
26907;DHT22;14472;56.880;16.658;2022-10-18T05:15:27;13.80;1.00
26907;DHT22;14472;56.880;16.658;2022-10-18T05:17:53;13.80;1.00
26907;DHT22;14472;56.880;16.658;2022-10-18T05:20:19;13.70;1.00
26907;DHT22;14472;56.880;16.658;2022-10-18T05:22:44;13.70;1.00
26907;DHT22;14472;56.880;16.658;2022-10-18T05:25:10;13.70;1.00
26907;DHT22;14472;56.880;16.658;2022-10-18T05:27:36;13.70;1.00
26907;DHT22;14472;56.880;16.658;2022-10-18T05:30:02;13.70;1.00
26907;DHT22;14472;56.880;16.658;2022-10-18T05:32:28;13.70;1.00
26907;DHT22;14472;56.880;16.658;2022-10-18T05:34:54;13.70;1.00
26907;DHT22;14472;56.880;16.658;2022-10-18T05:37:19;13.60;1.00
26907;DHT22;14472;56.880;16.658;2022-10-18T05:39:46;13.60;1.00
26907;DHT22;14472;56.880;16.658;2022-10-18T05:42:11;13.60;1.00
26907;DHT22;14472;56.880;16.658;2022-10-18T05:44:37;13.60;1.00
26907;DHT22;14472;56.880;16.658;2022-10-18T05:47:03;13.60;1.00
26907;DHT22;14472;56.880;16.658;2022-10-18T05:49:29;13.60;1.00
26907;DHT22;14472;56.880;16.658;2022-10-18T05:51:54;13.60;1.00
26907;DHT22;14472;56.880;16.658;2022-10-18T05:54:20;13.60;1.00
26907;DHT22;14472;56.880;16.658;2022-10-18T05:56:46;13.60;1.00
26907;DHT22;14472;56.880;16.658;2022-10-18T05:59:12;13.50;1.00
26907;DHT22;14472;56.880;16.658;2022-10-18T06:01:39;13.50;1.00
26907;DHT22;14472;56.880;16.658;2022-10-18T06:04:05;13.50;1.00
26907;DHT22;14472;56.880;16.658;2022-10-18T06:06:31;13.50;1.00
26907;DHT22;14472;56.880;16.658;2022-10-18T06:08:58;13.50;1.00
26907;DHT22;14472;56.880;16.658;2022-10-18T06:11:24;13.50;1.00
26907;DHT22;14472;56.880;16.658;2022-10-18T06:13:51;13.50;1.00
26907;DHT22;14472;56.880;16.658;2022-10-18T06:16:20;13.50;1.00
26907;DHT22;14472;56.880;16.658;2022-10-18T06:18:52;13.40;1.00
26907;DHT22;14472;56.880;16.658;2022-10-18T06:21:18;13.40;1.00
26907;DHT22;14472;56.880;16.658;2022-10-18T06:23:52;13.40;1.00
26907;DHT22;14472;56.880;16.658;2022-10-18T06:26:19;13.40;1.00
26907;DHT22;14472;56.880;16.658;2022-10-18T06:28:45;13.40;1.00
26907;DHT22;14472;56.880;16.658;2022-10-18T06:31:12;13.40;1.00
26907;DHT22;14472;56.880;16.658;2022-10-18T06:33:38;13.40;1.00
26907;DHT22;14472;56.880;16.658;2022-10-18T06:36:08;13.40;1.00
26907;DHT22;14472;56.880;16.658;2022-10-18T06:38:35;13.40;1.00
26907;DHT22;14472;56.880;16.658;2022-10-18T06:41:01;13.30;1.00
26907;DHT22;14472;56.880;16.658;2022-10-18T06:43:27;13.30;1.00
26907;DHT22;14472;56.880;16.658;2022-10-18T06:45:53;13.30;1.00
26907;DHT22;14472;56.880;16.658;2022-10-18T06:48:20;13.40;1.00
26907;DHT22;14472;56.880;16.658;2022-10-18T06:50:51;13.40;1.00
26907;DHT22;14472;56.880;16.658;2022-10-18T06:53:17;13.40;1.00
26907;DHT22;14472;56.880;16.658;2022-10-18T06:55:42;13.40;1.00
26907;DHT22;14472;56.880;16.658;2022-10-18T06:58:08;13.40;1.00
26907;DHT22;14472;56.880;16.658;2022-10-18T07:00:34;13.50;1.00
26907;DHT22;14472;56.880;16.658;2022-10-18T07:03:00;13.50;1.00
26907;DHT22;14472;56.880;16.658;2022-10-18T07:05:26;13.50;1.00
26907;DHT22;14472;56.880;16.658;2022-10-18T07:07:52;13.50;1.00
26907;DHT22;14472;56.880;16.658;2022-10-18T07:10:18;13.50;1.00
26907;DHT22;14472;56.880;16.658;2022-10-18T07:12:43;13.50;1.00
26907;DHT22;14472;56.880;16.658;2022-10-18T07:15:09;13.60;1.00
26907;DHT22;14472;56.880;16.658;2022-10-18T07:17:35;13.60;1.00
26907;DHT22;14472;56.880;16.658;2022-10-18T07:20:01;13.60;1.00
26907;DHT22;14472;56.880;16.658;2022-10-18T07:22:29;13.60;1.00
26907;DHT22;14472;56.880;16.658;2022-10-18T07:24:54;13.60;1.00
26907;DHT22;14472;56.880;16.658;2022-10-18T07:27:20;13.70;1.00
26907;DHT22;14472;56.880;16.658;2022-10-18T07:29:46;13.80;1.00
26907;DHT22;14472;56.880;16.658;2022-10-18T07:32:13;13.80;1.00
26907;DHT22;14472;56.880;16.658;2022-10-18T07:34:39;13.80;1.00
26907;DHT22;14472;56.880;16.658;2022-10-18T07:37:04;13.80;1.00
26907;DHT22;14472;56.880;16.658;2022-10-18T07:39:30;13.90;1.00
26907;DHT22;14472;56.880;16.658;2022-10-18T07:41:56;13.90;1.00
26907;DHT22;14472;56.880;16.658;2022-10-18T07:44:22;14.00;1.00
26907;DHT22;14472;56.880;16.658;2022-10-18T07:46:48;14.10;1.00
26907;DHT22;14472;56.880;16.658;2022-10-18T07:49:13;14.10;1.00
26907;DHT22;14472;56.880;16.658;2022-10-18T07:51:39;14.10;1.00
26907;DHT22;14472;56.880;16.658;2022-10-18T07:54:05;14.20;1.00
26907;DHT22;14472;56.880;16.658;2022-10-18T07:56:30;14.20;1.00
26907;DHT22;14472;56.880;16.658;2022-10-18T07:58:56;14.30;1.00
26907;DHT22;14472;56.880;16.658;2022-10-18T08:01:23;14.30;1.00
26907;DHT22;14472;56.880;16.658;2022-10-18T08:03:49;14.40;1.00
26907;DHT22;14472;56.880;16.658;2022-10-18T08:06:17;14.30;1.00
26907;DHT22;14472;56.880;16.658;2022-10-18T08:08:43;14.40;1.00
26907;DHT22;14472;56.880;16.658;2022-10-18T08:11:15;14.40;1.00
26907;DHT22;14472;56.880;16.658;2022-10-18T08:13:41;14.40;1.00
26907;DHT22;14472;56.880;16.658;2022-10-18T08:16:10;14.40;1.00
26907;DHT22;14472;56.880;16.658;2022-10-18T08:18:36;14.50;1.00
26907;DHT22;14472;56.880;16.658;2022-10-18T08:21:03;14.50;1.00
26907;DHT22;14472;56.880;16.658;2022-10-18T08:23:29;14.60;1.00
26907;DHT22;14472;56.880;16.658;2022-10-18T08:25:55;14.60;1.00
26907;DHT22;14472;56.880;16.658;2022-10-18T08:28:21;14.70;1.00
26907;DHT22;14472;56.880;16.658;2022-10-18T08:30:47;14.70;1.00
26907;DHT22;14472;56.880;16.658;2022-10-18T08:33:13;14.70;1.00
26907;DHT22;14472;56.880;16.658;2022-10-18T08:35:38;14.70;1.00
26907;DHT22;14472;56.880;16.658;2022-10-18T08:38:04;14.80;1.00
26907;DHT22;14472;56.880;16.658;2022-10-18T08:40:30;14.90;1.00
26907;DHT22;14472;56.880;16.658;2022-10-18T08:45:25;15.00;1.00
26907;DHT22;14472;56.880;16.658;2022-10-18T08:47:51;15.10;1.00
26907;DHT22;14472;56.880;16.658;2022-10-18T08:50:24;15.10;1.00
26907;DHT22;14472;56.880;16.658;2022-10-18T08:56:09;15.20;1.00
26907;DHT22;14472;56.880;16.658;2022-10-18T08:58:48;15.20;1.00
26907;DHT22;14472;56.880;16.658;2022-10-18T09:23:19;15.60;1.00
26907;DHT22;14472;56.880;16.658;2022-10-18T09:25:52;15.60;1.00
26907;DHT22;14472;56.880;16.658;2022-10-18T09:31:15;15.70;1.00
26907;DHT22;14472;56.880;16.658;2022-10-18T09:33:51;15.70;1.00
26907;DHT22;14472;56.880;16.658;2022-10-18T09:36:35;15.60;1.00
26907;DHT22;14472;56.880;16.658;2022-10-18T09:39:18;15.70;1.00
26907;DHT22;14472;56.880;16.658;2022-10-18T09:41:52;15.80;1.00
26907;DHT22;14472;56.880;16.658;2022-10-18T09:47:02;15.80;1.00
26907;DHT22;14472;56.880;16.658;2022-10-18T09:49:40;15.80;1.00
26907;DHT22;14472;56.880;16.658;2022-10-18T09:52:14;15.80;1.00
26907;DHT22;14472;56.880;16.658;2022-10-18T09:54:47;15.90;1.00
26907;DHT22;14472;56.880;16.658;2022-10-18T09:57:21;15.90;1.00
26907;DHT22;14472;56.880;16.658;2022-10-18T09:59:49;15.80;1.00
26907;DHT22;14472;56.880;16.658;2022-10-18T10:02:20;15.80;1.00
26907;DHT22;14472;56.880;16.658;2022-10-18T10:04:47;15.90;1.00
26907;DHT22;14472;56.880;16.658;2022-10-18T10:07:28;15.90;1.00
26907;DHT22;14472;56.880;16.658;2022-10-18T10:12:33;16.00;1.00
26907;DHT22;14472;56.880;16.658;2022-10-18T10:15:22;16.10;1.00
26907;DHT22;14472;56.880;16.658;2022-10-18T10:17:56;16.10;1.00
26907;DHT22;14472;56.880;16.658;2022-10-18T10:20:41;16.10;1.00
26907;DHT22;14472;56.880;16.658;2022-10-18T10:23:32;16.10;1.00
26907;DHT22;14472;56.880;16.658;2022-10-18T10:26:06;16.20;1.00
26907;DHT22;14472;56.880;16.658;2022-10-18T10:28:44;16.20;1.00
26907;DHT22;14472;56.880;16.658;2022-10-18T10:31:29;16.30;1.00
26907;DHT22;14472;56.880;16.658;2022-10-18T10:36:31;16.40;1.00
26907;DHT22;14472;56.880;16.658;2022-10-18T10:39:08;16.40;1.00
26907;DHT22;14472;56.880;16.658;2022-10-18T10:41:37;16.40;1.00
26907;DHT22;14472;56.880;16.658;2022-10-18T10:44:20;16.40;1.00
26907;DHT22;14472;56.880;16.658;2022-10-18T10:46:48;16.40;1.00
26907;DHT22;14472;56.880;16.658;2022-10-18T10:49:18;16.40;1.00
26907;DHT22;14472;56.880;16.658;2022-10-18T10:51:46;16.40;1.00
26907;DHT22;14472;56.880;16.658;2022-10-18T10:54:21;16.40;1.00
26907;DHT22;14472;56.880;16.658;2022-10-18T10:57:01;16.40;1.00
26907;DHT22;14472;56.880;16.658;2022-10-18T10:59:31;16.50;1.00
26907;DHT22;14472;56.880;16.658;2022-10-18T11:02:18;16.40;1.00
26907;DHT22;14472;56.880;16.658;2022-10-18T11:04:53;16.40;1.00
26907;DHT22;14472;56.880;16.658;2022-10-18T11:07:40;16.40;1.00
26907;DHT22;14472;56.880;16.658;2022-10-18T11:12:45;16.30;1.00
26907;DHT22;14472;56.880;16.658;2022-10-18T11:15:42;16.30;1.00
26907;DHT22;14472;56.880;16.658;2022-10-18T11:18:20;16.30;1.00
26907;DHT22;14472;56.880;16.658;2022-10-18T11:20:58;16.40;1.00
26907;DHT22;14472;56.880;16.658;2022-10-18T11:23:30;16.40;1.00
26907;DHT22;14472;56.880;16.658;2022-10-18T11:28:51;16.40;1.00
26907;DHT22;14472;56.880;16.658;2022-10-18T11:43:11;16.50;1.00
26907;DHT22;14472;56.880;16.658;2022-10-18T11:45:56;16.50;1.00
26907;DHT22;14472;56.880;16.658;2022-10-18T11:48:37;16.50;1.00
26907;DHT22;14472;56.880;16.658;2022-10-18T11:57:01;16.50;1.00
26907;DHT22;14472;56.880;16.658;2022-10-18T11:59:37;16.50;1.00
26907;DHT22;14472;56.880;16.658;2022-10-18T12:02:20;16.50;1.00
26907;DHT22;14472;56.880;16.658;2022-10-18T12:05:03;16.50;1.00
26907;DHT22;14472;56.880;16.658;2022-10-18T12:07:33;16.50;1.00
26907;DHT22;14472;56.880;16.658;2022-10-18T12:10:02;16.50;1.00
26907;DHT22;14472;56.880;16.658;2022-10-18T12:12:51;16.50;1.00
26907;DHT22;14472;56.880;16.658;2022-10-18T12:15:20;16.50;1.00
26907;DHT22;14472;56.880;16.658;2022-10-18T12:17:53;16.50;1.00
26907;DHT22;14472;56.880;16.658;2022-10-18T12:20:30;16.40;1.00
26907;DHT22;14472;56.880;16.658;2022-10-18T12:23:04;16.40;1.00
26907;DHT22;14472;56.880;16.658;2022-10-18T12:25:35;16.40;1.00
26907;DHT22;14472;56.880;16.658;2022-10-18T12:31:23;16.30;1.00
26907;DHT22;14472;56.880;16.658;2022-10-18T12:33:55;16.30;1.00
26907;DHT22;14472;56.880;16.658;2022-10-18T12:39:14;16.30;1.00
26907;DHT22;14472;56.880;16.658;2022-10-18T12:41:46;16.30;1.00
26907;DHT22;14472;56.880;16.658;2022-10-18T12:44:21;16.30;1.00
26907;DHT22;14472;56.880;16.658;2022-10-18T12:46:51;16.30;1.00
26907;DHT22;14472;56.880;16.658;2022-10-18T12:49:28;16.30;1.00
26907;DHT22;14472;56.880;16.658;2022-10-18T12:52:06;16.20;1.00
26907;DHT22;14472;56.880;16.658;2022-10-18T12:54:35;16.20;1.00
26907;DHT22;14472;56.880;16.658;2022-10-18T12:57:05;16.20;1.00
26907;DHT22;14472;56.880;16.658;2022-10-18T13:09:27;16.10;1.00
26907;DHT22;14472;56.880;16.658;2022-10-18T13:17:38;16.10;1.00
26907;DHT22;14472;56.880;16.658;2022-10-18T13:23:13;16.10;1.00
26907;DHT22;14472;56.880;16.658;2022-10-18T13:26:03;16.10;1.00
26907;DHT22;14472;56.880;16.658;2022-10-18T13:31:44;16.10;1.00
26907;DHT22;14472;56.880;16.658;2022-10-18T13:39:36;16.10;1.00
26907;DHT22;14472;56.880;16.658;2022-10-18T13:55:13;16.10;1.00
26907;DHT22;14472;56.880;16.658;2022-10-18T14:03:51;16.10;1.00
26907;DHT22;14472;56.880;16.658;2022-10-18T14:06:26;16.10;1.00
26907;DHT22;14472;56.880;16.658;2022-10-18T14:09:00;16.10;1.00
26907;DHT22;14472;56.880;16.658;2022-10-18T14:11:38;16.10;1.00
26907;DHT22;14472;56.880;16.658;2022-10-18T14:14:34;16.00;1.00
26907;DHT22;14472;56.880;16.658;2022-10-18T14:19:45;15.80;1.00
26907;DHT22;14472;56.880;16.658;2022-10-18T14:22:20;15.70;1.00
26907;DHT22;14472;56.880;16.658;2022-10-18T14:25:43;15.70;1.00
26907;DHT22;14472;56.880;16.658;2022-10-18T14:28:21;15.70;1.00
26907;DHT22;14472;56.880;16.658;2022-10-18T14:33:35;15.60;1.00
26907;DHT22;14472;56.880;16.658;2022-10-18T14:41:21;15.60;1.00
26907;DHT22;14472;56.880;16.658;2022-10-18T14:43:47;15.50;1.00
26907;DHT22;14472;56.880;16.658;2022-10-18T14:46:23;15.50;1.00
26907;DHT22;14472;56.880;16.658;2022-10-18T14:48:59;15.50;1.00
26907;DHT22;14472;56.880;16.658;2022-10-18T14:51:28;15.50;1.00
26907;DHT22;14472;56.880;16.658;2022-10-18T14:53:55;15.40;1.00
26907;DHT22;14472;56.880;16.658;2022-10-18T14:56:29;15.40;1.00
26907;DHT22;14472;56.880;16.658;2022-10-18T14:58:57;15.40;1.00
26907;DHT22;14472;56.880;16.658;2022-10-18T15:01:28;15.40;1.00
26907;DHT22;14472;56.880;16.658;2022-10-18T15:03:59;15.30;1.00
26907;DHT22;14472;56.880;16.658;2022-10-18T15:06:27;15.30;1.00
26907;DHT22;14472;56.880;16.658;2022-10-18T15:08:58;15.30;1.00
26907;DHT22;14472;56.880;16.658;2022-10-18T15:11:26;15.30;1.00
26907;DHT22;14472;56.880;16.658;2022-10-18T15:14:03;15.30;1.00
26907;DHT22;14472;56.880;16.658;2022-10-18T15:16:32;15.40;1.00
26907;DHT22;14472;56.880;16.658;2022-10-18T15:21:54;15.30;1.00
26907;DHT22;14472;56.880;16.658;2022-10-18T15:27:21;15.20;1.00
26907;DHT22;14472;56.880;16.658;2022-10-18T15:29:44;15.20;1.00
26907;DHT22;14472;56.880;16.658;2022-10-18T15:32:28;15.10;1.00
26907;DHT22;14472;56.880;16.658;2022-10-18T15:35:06;15.10;1.00
26907;DHT22;14472;56.880;16.658;2022-10-18T15:37:41;15.00;1.00
26907;DHT22;14472;56.880;16.658;2022-10-18T15:42:43;15.00;1.00
26907;DHT22;14472;56.880;16.658;2022-10-18T15:55:51;14.90;1.00
26907;DHT22;14472;56.880;16.658;2022-10-18T15:58:25;14.90;1.00
26907;DHT22;14472;56.880;16.658;2022-10-18T16:00:57;14.80;1.00
26907;DHT22;14472;56.880;16.658;2022-10-18T16:03:23;14.80;1.00
26907;DHT22;14472;56.880;16.658;2022-10-18T16:06:02;14.70;1.00
26907;DHT22;14472;56.880;16.658;2022-10-18T16:08:28;14.70;1.00
26907;DHT22;14472;56.880;16.658;2022-10-18T16:11:01;14.70;1.00
26907;DHT22;14472;56.880;16.658;2022-10-18T16:13:27;14.70;1.00
26907;DHT22;14472;56.880;16.658;2022-10-18T16:15:53;14.70;1.00
26907;DHT22;14472;56.880;16.658;2022-10-18T16:18:24;14.60;1.00
26907;DHT22;14472;56.880;16.658;2022-10-18T16:20:51;14.50;1.00
26907;DHT22;14472;56.880;16.658;2022-10-18T16:23:25;14.50;1.00
26907;DHT22;14472;56.880;16.658;2022-10-18T16:25:52;14.50;1.00
26907;DHT22;14472;56.880;16.658;2022-10-18T16:28:21;14.50;1.00
26907;DHT22;14472;56.880;16.658;2022-10-18T16:30:59;14.50;1.00
26907;DHT22;14472;56.880;16.658;2022-10-18T16:33:25;14.50;1.00
26907;DHT22;14472;56.880;16.658;2022-10-18T16:35:52;14.50;1.00
26907;DHT22;14472;56.880;16.658;2022-10-18T16:38:33;14.50;1.00
26907;DHT22;14472;56.880;16.658;2022-10-18T16:41:00;14.50;1.00
26907;DHT22;14472;56.880;16.658;2022-10-18T16:43:26;14.50;1.00
26907;DHT22;14472;56.880;16.658;2022-10-18T16:45:53;14.50;1.00
26907;DHT22;14472;56.880;16.658;2022-10-18T16:48:20;14.50;1.00
26907;DHT22;14472;56.880;16.658;2022-10-18T16:50:47;14.50;1.00
26907;DHT22;14472;56.880;16.658;2022-10-18T16:53:13;14.40;1.00
26907;DHT22;14472;56.880;16.658;2022-10-18T16:55:40;14.40;1.00
26907;DHT22;14472;56.880;16.658;2022-10-18T16:58:14;14.40;1.00
26907;DHT22;14472;56.880;16.658;2022-10-18T17:00:40;14.30;1.00
26907;DHT22;14472;56.880;16.658;2022-10-18T17:03:06;14.30;1.00
26907;DHT22;14472;56.880;16.658;2022-10-18T17:05:33;14.30;1.00
26907;DHT22;14472;56.880;16.658;2022-10-18T17:07:58;14.20;1.00
26907;DHT22;14472;56.880;16.658;2022-10-18T17:10:24;14.20;1.00
26907;DHT22;14472;56.880;16.658;2022-10-18T17:12:52;14.20;1.00
26907;DHT22;14472;56.880;16.658;2022-10-18T17:15:18;14.20;1.00
26907;DHT22;14472;56.880;16.658;2022-10-18T17:17:44;14.10;1.00
26907;DHT22;14472;56.880;16.658;2022-10-18T17:20:19;14.10;1.00
26907;DHT22;14472;56.880;16.658;2022-10-18T17:22:45;14.10;1.00
26907;DHT22;14472;56.880;16.658;2022-10-18T17:25:11;14.10;1.00
26907;DHT22;14472;56.880;16.658;2022-10-18T17:27:37;14.10;1.00
26907;DHT22;14472;56.880;16.658;2022-10-18T17:30:03;14.00;1.00
26907;DHT22;14472;56.880;16.658;2022-10-18T17:32:28;14.00;1.00
26907;DHT22;14472;56.880;16.658;2022-10-18T17:34:54;14.00;1.00
26907;DHT22;14472;56.880;16.658;2022-10-18T17:37:21;13.90;1.00
26907;DHT22;14472;56.880;16.658;2022-10-18T17:39:48;13.90;1.00
26907;DHT22;14472;56.880;16.658;2022-10-18T17:42:14;13.90;1.00
26907;DHT22;14472;56.880;16.658;2022-10-18T17:44:39;13.80;1.00
26907;DHT22;14472;56.880;16.658;2022-10-18T17:47:07;13.90;1.00
26907;DHT22;14472;56.880;16.658;2022-10-18T17:49:33;13.80;1.00
26907;DHT22;14472;56.880;16.658;2022-10-18T17:51:59;13.80;1.00
26907;DHT22;14472;56.880;16.658;2022-10-18T17:54:25;13.80;1.00
26907;DHT22;14472;56.880;16.658;2022-10-18T17:56:50;13.80;1.00
26907;DHT22;14472;56.880;16.658;2022-10-18T17:59:16;13.80;1.00
26907;DHT22;14472;56.880;16.658;2022-10-18T18:01:42;13.80;1.00
26907;DHT22;14472;56.880;16.658;2022-10-18T18:04:07;13.80;1.00
26907;DHT22;14472;56.880;16.658;2022-10-18T18:06:35;13.80;1.00
26907;DHT22;14472;56.880;16.658;2022-10-18T18:09:21;13.80;1.00
26907;DHT22;14472;56.880;16.658;2022-10-18T18:11:47;13.80;1.00
26907;DHT22;14472;56.880;16.658;2022-10-18T18:14:14;13.80;1.00
26907;DHT22;14472;56.880;16.658;2022-10-18T18:16:42;13.70;1.00
26907;DHT22;14472;56.880;16.658;2022-10-18T18:19:08;13.70;1.00
26907;DHT22;14472;56.880;16.658;2022-10-18T18:21:34;13.70;1.00
26907;DHT22;14472;56.880;16.658;2022-10-18T18:24:01;13.70;1.00